createdAt,value
2022-08-09T00:31:50.457Z,7.97
2022-08-09T00:33:54.174Z,8.63
2022-08-09T00:36:22.494Z,8.55
2022-08-09T00:38:56.807Z,9.48
2022-08-09T00:44:16.958Z,8.63
2022-08-09T00:44:26.637Z,9.07
2022-08-09T00:46:55.843Z,8.38
2022-08-09T00:49:25.223Z,8.82
2022-08-09T00:51:57.168Z,8.45
2022-08-09T00:54:31.406Z,8.67
2022-08-09T00:57:02.438Z,9.00
2022-08-09T00:59:41.012Z,8.55
2022-08-09T01:02:20.210Z,8.30
2022-08-09T01:04:53.193Z,9.00
2022-08-09T01:07:37.910Z,8.45
2022-08-09T01:10:37.197Z,8.30
2022-08-09T01:24:01.957Z,8.15
2022-08-09T01:27:08.830Z,7.47
2022-08-09T01:29:56.305Z,8.25
2022-08-09T01:32:33.601Z,8.07
2022-08-09T01:35:28.304Z,8.50
2022-08-09T01:38:07.684Z,8.38
2022-08-09T01:40:42.345Z,7.80
2022-08-09T01:43:11.065Z,7.97
2022-08-09T01:45:44.741Z,8.07
2022-08-09T01:48:16.564Z,7.55
2022-08-09T01:50:55.094Z,7.78
2022-08-09T01:53:23.893Z,7.95
2022-08-09T01:55:57.196Z,8.35
2022-08-09T01:58:26.292Z,8.30
2022-08-09T02:00:57.344Z,8.73
2022-08-09T02:03:24.983Z,8.05
2022-08-09T02:06:03.932Z,7.85
2022-08-09T02:08:58.998Z,7.88
2022-08-09T02:11:42.851Z,7.55
2022-08-09T02:14:15.877Z,8.13
2022-08-09T02:17:14.569Z,7.60
2022-08-09T02:19:43.251Z,7.22
2022-08-09T02:22:35.941Z,10.05
2022-08-09T02:25:10.052Z,10.45
2022-08-09T02:28:00.361Z,10.40
2022-08-09T02:30:44.612Z,10.37
2022-08-09T02:33:18.801Z,10.95
2022-08-09T02:36:03.002Z,10.45
2022-08-09T02:38:35.661Z,10.32
2022-08-09T02:41:08.317Z,10.20
2022-08-09T02:43:54.010Z,10.20
2022-08-09T02:46:28.443Z,9.75
2022-08-09T02:49:01.085Z,10.10
2022-08-09T02:51:39.975Z,10.48
2022-08-09T02:54:10.463Z,11.00
2022-08-09T02:56:41.657Z,12.27
2022-08-09T02:59:26.394Z,12.20
2022-08-09T03:02:12.248Z,12.48
2022-08-09T03:04:46.079Z,12.20
2022-08-09T03:07:19.352Z,11.80
2022-08-09T03:09:54.474Z,12.23
2022-08-09T03:12:25.269Z,11.30
2022-08-09T03:14:53.768Z,10.80
2022-08-09T03:17:27.194Z,11.00
2022-08-09T03:20:03.506Z,11.27
2022-08-09T03:22:42.184Z,11.23
2022-08-09T03:25:25.898Z,11.55
2022-08-09T03:27:55.474Z,11.55
2022-08-09T03:30:30.015Z,12.60
2022-08-09T03:33:05.573Z,11.88
2022-08-09T03:36:11.237Z,11.55
2022-08-09T03:38:29.119Z,11.35
2022-08-09T03:40:58.170Z,11.52
2022-08-09T03:43:31.956Z,11.95
2022-08-09T03:46:05.178Z,12.30
2022-08-09T03:48:51.330Z,12.27
2022-08-09T03:51:57.700Z,11.82
2022-08-09T03:54:10.749Z,12.40
2022-08-09T03:56:41.314Z,12.88
2022-08-09T03:59:17.289Z,12.50
2022-08-09T04:01:59.153Z,12.63
2022-08-09T04:04:36.094Z,12.75
2022-08-09T04:07:06.017Z,12.65
2022-08-09T04:09:44.445Z,12.85
2022-08-09T04:12:30.895Z,12.93
2022-08-09T04:15:02.097Z,12.50
2022-08-09T04:17:39.401Z,13.48
2022-08-09T04:20:11.095Z,12.98
2022-08-09T04:22:41.255Z,12.93
2022-08-09T04:25:13.045Z,13.43
2022-08-09T04:27:42.861Z,14.25
2022-08-09T04:30:18.036Z,13.27
2022-08-09T04:32:47.912Z,13.15
2022-08-09T04:35:15.349Z,12.90
2022-08-09T04:37:46.439Z,13.15
2022-08-09T04:40:18.956Z,13.23
2022-08-09T04:55:57.912Z,12.00
2022-08-09T05:13:38.626Z,11.25
2022-08-09T05:16:07.848Z,10.68
2022-08-09T05:18:55.540Z,11.20
2022-08-09T05:21:24.563Z,11.00
2022-08-09T05:37:06.841Z,9.93
2022-08-09T05:50:23.463Z,14.57
2022-08-09T05:52:33.259Z,9.20
2022-08-09T05:55:07.012Z,9.00
2022-08-09T05:57:55.840Z,8.98
2022-08-09T06:00:29.844Z,9.02
2022-08-09T06:02:58.926Z,9.50
2022-08-09T06:05:57.053Z,8.70
2022-08-09T06:08:19.695Z,8.10
2022-08-09T06:10:52.589Z,7.55
2022-08-09T06:13:20.968Z,7.97
2022-08-09T06:15:52.384Z,7.88
2022-08-09T06:20:57.735Z,7.88
2022-08-09T06:23:57.689Z,7.80
2022-08-09T06:26:20.533Z,7.53
2022-08-09T06:29:01.146Z,6.60
2022-08-09T06:31:40.458Z,6.40
2022-08-09T06:34:22.524Z,5.22
2022-08-09T06:36:57.492Z,6.33
2022-08-09T06:39:48.707Z,5.32
2022-08-09T06:42:25.029Z,5.85
2022-08-09T06:44:55.510Z,5.80
2022-08-09T06:47:24.319Z,5.22
2022-08-09T06:50:14.730Z,4.00
2022-08-09T06:52:46.924Z,5.25
2022-08-09T06:55:16.059Z,4.75
2022-08-09T06:58:02.520Z,5.23
2022-08-09T07:00:56.455Z,5.00
2022-08-09T07:03:18.791Z,4.75
2022-08-09T07:06:02.685Z,4.57
2022-08-09T07:08:32.935Z,4.38
2022-08-09T07:11:03.596Z,4.57
2022-08-09T07:16:42.172Z,4.20
2022-08-09T07:18:58.615Z,3.80
2022-08-09T07:21:25.586Z,4.57
2022-08-09T07:23:58.507Z,4.55
2022-08-09T07:26:26.033Z,4.65
2022-08-09T07:29:09.369Z,4.90
2022-08-09T07:31:45.204Z,4.15
2022-08-09T07:34:20.852Z,5.07
2022-08-09T07:36:49.438Z,5.30
2022-08-09T07:39:20.557Z,4.03
2022-08-09T07:42:05.113Z,4.30
2022-08-09T07:44:51.187Z,3.93
2022-08-09T07:47:21.059Z,4.80
2022-08-09T07:49:52.380Z,4.30
2022-08-09T07:52:33.164Z,4.60
2022-08-09T07:55:03.980Z,5.00
2022-08-09T07:57:36.401Z,4.07
2022-08-09T08:00:08.951Z,4.20
2022-08-09T08:02:36.722Z,4.70
2022-08-09T08:09:00.980Z,4.50
2022-08-09T08:10:34.415Z,5.10
2022-08-09T08:13:03.873Z,4.88
2022-08-09T08:15:35.590Z,4.25
2022-08-09T08:23:06.618Z,3.40
2022-08-09T08:25:46.166Z,3.30
2022-08-09T08:28:15.457Z,3.30
2022-08-09T08:30:43.982Z,3.30
2022-08-09T08:33:11.848Z,2.80
2022-08-09T08:36:00.203Z,2.70
2022-08-09T08:43:23.800Z,2.20
2022-08-09T08:46:31.780Z,2.70
2022-08-09T08:48:53.674Z,3.00
2022-08-09T08:51:24.987Z,2.70
2022-08-09T08:54:02.965Z,2.33
2022-08-09T08:56:35.312Z,2.00
2022-08-09T08:59:07.642Z,1.92
2022-08-09T09:01:52.018Z,2.03
2022-08-09T09:04:27.004Z,1.92
2022-08-09T09:06:58.158Z,1.88
2022-08-09T09:09:58.488Z,1.95
2022-08-09T09:12:19.262Z,1.87
2022-08-09T09:14:49.881Z,1.90
2022-08-09T09:17:18.897Z,1.60
2022-08-09T09:19:48.191Z,1.90
2022-08-09T09:22:26.926Z,1.70
2022-08-09T09:26:00.429Z,2.22
2022-08-09T09:28:03.563Z,2.30
2022-08-09T09:30:40.212Z,1.98
2022-08-09T09:33:16.195Z,2.80
2022-08-09T09:36:20.500Z,2.83
2022-08-09T09:38:56.989Z,3.20
2022-08-09T09:41:24.166Z,2.78
2022-08-09T09:44:11.547Z,2.92
2022-08-09T09:46:45.833Z,2.53
2022-08-09T09:49:31.748Z,2.67
2022-08-09T09:52:16.276Z,2.83
2022-08-09T09:55:16.011Z,2.80
2022-08-09T09:58:19.288Z,1.80
2022-08-09T10:00:55.182Z,1.75
2022-08-09T10:03:57.959Z,2.10
2022-08-09T10:06:28.596Z,1.77
2022-08-09T10:09:12.006Z,1.52
2022-08-09T10:12:04.457Z,1.70
2022-08-09T10:14:40.081Z,1.40
2022-08-09T10:17:38.978Z,1.50
2022-08-09T10:20:17.614Z,1.75
2022-08-09T10:23:00.371Z,1.70
2022-08-09T10:25:34.706Z,1.70
2022-08-09T10:28:15.401Z,1.70
2022-08-09T10:32:27.760Z,1.60
2022-08-09T10:34:07.935Z,1.75
2022-08-09T10:36:22.407Z,2.05
2022-08-09T10:38:56.852Z,1.70
2022-08-09T10:41:27.859Z,1.88
2022-08-09T10:44:01.505Z,1.80
2022-08-09T10:47:00.527Z,2.00
2022-08-09T10:50:10.155Z,1.98
2022-08-09T10:53:10.314Z,1.90
2022-08-09T10:55:58.795Z,2.00
2022-08-09T10:58:33.689Z,1.92
2022-08-09T11:03:02.999Z,1.90
2022-08-09T11:04:19.457Z,1.98
2022-08-09T11:07:03.802Z,1.92
2022-08-09T11:09:47.836Z,2.00
2022-08-09T11:12:20.149Z,1.83
2022-08-09T11:14:58.973Z,1.80
2022-08-09T11:17:26.282Z,2.27
2022-08-09T11:20:20.058Z,1.80
2022-08-09T11:22:56.643Z,1.80
2022-08-09T11:25:44.694Z,1.73
2022-08-09T11:28:55.815Z,2.22
2022-08-09T11:31:43.603Z,1.90
2022-08-09T11:34:35.117Z,2.10
2022-08-09T11:37:07.492Z,1.95
2022-08-09T11:40:05.335Z,2.10
2022-08-09T11:42:51.531Z,1.90
2022-08-09T11:45:42.097Z,2.78
2022-08-09T11:48:26.306Z,1.88
2022-08-09T11:52:48.842Z,2.30
2022-08-09T11:53:59.066Z,2.13
2022-08-09T11:56:41.961Z,2.05
2022-08-09T11:59:11.728Z,2.10
2022-08-09T12:02:18.382Z,2.30
2022-08-09T12:04:32.258Z,2.20
2022-08-09T12:07:04.552Z,1.88
2022-08-09T12:09:35.514Z,2.03
2022-08-09T12:12:11.966Z,1.80
2022-08-09T12:15:03.653Z,1.77
2022-08-09T12:17:42.311Z,2.28
2022-08-09T12:20:24.172Z,1.85
2022-08-09T12:23:00.531Z,2.10
2022-08-09T12:25:37.511Z,2.05
2022-08-09T12:29:13.475Z,3.33
2022-08-09T12:31:11.121Z,2.23
2022-08-09T12:34:00.865Z,2.20
2022-08-09T12:36:32.171Z,2.22
2022-08-09T12:39:00.836Z,2.30
2022-08-09T12:41:38.363Z,2.20
2022-08-09T12:44:10.017Z,2.13
2022-08-09T12:46:49.275Z,2.35
2022-08-09T12:49:18.931Z,1.97
2022-08-09T12:52:02.712Z,2.30
2022-08-09T12:55:03.134Z,2.25
2022-08-09T12:57:46.370Z,2.20
2022-08-09T13:00:18.384Z,1.90
2022-08-09T13:02:53.435Z,2.05
2022-08-09T13:08:21.016Z,2.00
2022-08-09T13:11:23.339Z,2.10
2022-08-09T13:14:38.071Z,1.80
2022-08-09T13:16:47.762Z,1.80
2022-08-09T13:20:09.709Z,2.00
2022-08-09T13:23:00.686Z,2.00
2022-08-09T13:25:13.873Z,1.90
2022-08-09T13:27:54.444Z,2.05
2022-08-09T13:30:49.287Z,1.90
2022-08-09T13:36:24.080Z,1.85
2022-08-09T13:38:55.624Z,1.80
2022-08-09T13:44:16.314Z,1.70
2022-08-09T13:47:25.274Z,1.80
2022-08-09T13:49:37.714Z,1.90
2022-08-09T13:52:08.905Z,1.70
2022-08-09T13:54:36.243Z,1.67
2022-08-09T13:57:14.541Z,1.63
2022-08-09T14:12:57.111Z,1.95
2022-08-09T14:35:52.742Z,1.70
2022-08-09T14:38:20.355Z,1.85
2022-08-09T14:41:00.885Z,1.98
2022-08-09T14:43:46.812Z,1.80
2022-08-09T14:47:01.154Z,1.90
2022-08-09T14:49:02.803Z,2.03
2022-08-09T14:51:31.337Z,1.83
2022-08-09T14:54:09.617Z,1.77
2022-08-09T14:56:57.398Z,1.90
2022-08-09T14:59:23.932Z,1.70
2022-08-09T15:01:50.928Z,1.83
2022-08-09T15:04:18.611Z,1.73
2022-08-09T15:06:49.725Z,1.70
2022-08-09T15:10:03.367Z,1.98
2022-08-09T15:12:05.204Z,1.90
2022-08-09T15:14:38.508Z,1.80
2022-08-09T15:17:09.670Z,1.63
2022-08-09T15:19:54.391Z,1.80
2022-08-09T15:22:26.110Z,1.80
2022-08-09T15:24:53.748Z,1.70
2022-08-09T15:27:21.969Z,1.60
2022-08-09T15:30:56.334Z,1.88
2022-08-09T15:32:36.594Z,1.80
2022-08-09T15:35:18.374Z,1.60
2022-08-09T15:37:57.157Z,1.53
2022-08-09T15:46:07.243Z,1.80
2022-08-09T15:48:30.801Z,2.20
2022-08-09T15:51:01.943Z,2.05
2022-08-09T15:54:03.885Z,2.10
2022-08-09T16:37:52.926Z,2.30
2022-08-09T16:40:20.420Z,1.98
2022-08-09T16:42:58.183Z,1.80
2022-08-09T16:45:25.311Z,2.50
2022-08-09T16:48:38.161Z,2.33
2022-08-09T20:09:50.055Z,3.17
2022-08-09T20:12:29.784Z,3.58
2022-08-09T20:16:31.597Z,3.80
2022-08-09T20:38:22.542Z,4.07
2022-08-09T20:40:35.554Z,4.80
2022-08-09T20:43:19.123Z,4.53
2022-08-09T20:46:01.767Z,4.70
2022-08-09T20:48:38.445Z,4.75
2022-08-09T20:51:06.849Z,5.20
2022-08-09T20:53:36.663Z,5.95
2022-08-09T20:56:21.302Z,6.10
2022-08-09T20:58:58.309Z,6.10
2022-08-09T21:01:35.286Z,6.28
2022-08-09T21:05:54.030Z,6.20
2022-08-09T21:07:11.634Z,6.00
2022-08-09T21:09:56.412Z,6.20
2022-08-09T21:15:23.804Z,6.60
2022-08-09T21:18:20.758Z,6.05
2022-08-09T21:20:50.281Z,6.40
2022-08-09T21:23:22.049Z,6.93
2022-08-09T21:26:03.179Z,6.30
2022-08-09T21:28:36.122Z,6.47
2022-08-09T21:31:16.213Z,7.07
2022-08-09T21:33:51.327Z,7.18
2022-08-09T21:36:27.922Z,7.20
2022-08-09T21:38:57.614Z,7.30
2022-08-09T21:42:03.631Z,6.85
2022-08-09T21:44:33.356Z,6.80
2022-08-09T21:47:07.882Z,7.03
2022-08-09T21:49:40.430Z,6.68
2022-08-09T21:52:17.815Z,7.07
2022-08-09T21:55:03.747Z,7.40
2022-08-09T21:57:37.509Z,7.55
2022-08-09T22:00:25.726Z,7.90
2022-08-09T22:02:58.934Z,6.80
2022-08-09T22:05:35.615Z,7.75
2022-08-09T22:08:13.697Z,7.60
2022-08-09T22:11:48.809Z,7.90
2022-08-09T22:13:31.394Z,8.27
2022-08-09T22:16:03.764Z,7.85
2022-08-09T22:18:33.078Z,7.75
2022-08-09T22:21:01.299Z,8.05
2022-08-09T22:23:35.407Z,8.48
2022-08-09T22:26:08.369Z,8.48
2022-08-09T22:28:47.115Z,8.33
2022-08-09T22:31:20.845Z,8.50
2022-08-09T22:33:55.373Z,8.07
2022-08-09T22:36:23.604Z,9.00
2022-08-09T22:38:50.689Z,8.95
2022-08-09T22:41:19.301Z,8.95
2022-08-09T22:44:02.012Z,9.05
2022-08-09T22:48:11.600Z,9.45
2022-08-09T22:49:19.127Z,9.25
2022-08-09T22:51:49.883Z,9.40
2022-08-09T22:54:26.856Z,10.60
2022-08-09T22:56:56.634Z,10.60
2022-08-09T22:59:58.161Z,10.38
2022-08-09T23:02:15.928Z,10.00
2022-08-09T23:04:53.679Z,10.13
2022-08-09T23:08:21.962Z,10.00
2022-08-09T23:10:28.523Z,10.55
2022-08-09T23:12:55.423Z,11.23
2022-08-09T23:15:22.387Z,11.27
2022-08-09T23:17:49.246Z,10.87
2022-08-09T23:20:16.442Z,10.95
2022-08-09T23:22:43.306Z,12.00
2022-08-09T23:25:11.042Z,11.45
2022-08-09T23:28:09.321Z,11.63
2022-08-09T23:30:25.297Z,11.93
2022-08-09T23:32:52.306Z,13.93
2022-08-09T23:35:19.229Z,13.65
2022-08-09T23:37:46.125Z,12.80
2022-08-09T23:40:13.358Z,13.70
2022-08-09T23:42:40.707Z,12.77
2022-08-09T23:45:08.965Z,12.98
2022-08-09T23:47:37.090Z,12.93
2022-08-09T23:50:04.715Z,13.50
2022-08-09T23:52:31.659Z,13.48
2022-08-09T23:55:00.170Z,13.70
2022-08-09T23:57:27.315Z,13.75
